sensor_id;sensor_type;location;lat;lon;timestamp;P1;durP1;ratioP1;P2;durP2;ratioP2
51174;SDS011;37240;50.104;20.010;2023-11-21T00:02:53;17.80;;;7.53;;
51174;SDS011;37240;50.104;20.010;2023-11-21T00:07:54;18.90;;;7.18;;
51174;SDS011;37240;50.104;20.010;2023-11-21T00:12:54;14.70;;;8.35;;
51174;SDS011;37240;50.104;20.010;2023-11-21T00:17:55;20.17;;;6.80;;
51174;SDS011;37240;50.104;20.010;2023-11-21T00:22:55;13.38;;;7.05;;
51174;SDS011;37240;50.104;20.010;2023-11-21T00:27:56;16.13;;;6.55;;
51174;SDS011;37240;50.104;20.010;2023-11-21T00:32:56;15.73;;;6.88;;
51174;SDS011;37240;50.104;20.010;2023-11-21T00:37:57;14.85;;;7.53;;
51174;SDS011;37240;50.104;20.010;2023-11-21T00:42:58;10.80;;;5.88;;
51174;SDS011;37240;50.104;20.010;2023-11-21T00:47:58;11.50;;;5.82;;
51174;SDS011;37240;50.104;20.010;2023-11-21T00:52:59;12.00;;;5.00;;
51174;SDS011;37240;50.104;20.010;2023-11-21T00:57:59;8.77;;;4.97;;
51174;SDS011;37240;50.104;20.010;2023-11-21T01:03:00;11.80;;;5.13;;
51174;SDS011;37240;50.104;20.010;2023-11-21T01:08:01;11.27;;;5.80;;
51174;SDS011;37240;50.104;20.010;2023-11-21T01:13:01;10.43;;;5.20;;
51174;SDS011;37240;50.104;20.010;2023-11-21T01:18:02;8.00;;;4.60;;
51174;SDS011;37240;50.104;20.010;2023-11-21T01:23:03;9.77;;;4.70;;
51174;SDS011;37240;50.104;20.010;2023-11-21T01:28:03;11.50;;;4.10;;
51174;SDS011;37240;50.104;20.010;2023-11-21T01:33:04;7.90;;;3.35;;
51174;SDS011;37240;50.104;20.010;2023-11-21T01:38:04;5.38;;;3.45;;
51174;SDS011;37240;50.104;20.010;2023-11-21T01:43:05;8.02;;;3.67;;
51174;SDS011;37240;50.104;20.010;2023-11-21T01:48:05;6.00;;;3.65;;
51174;SDS011;37240;50.104;20.010;2023-11-21T01:53:06;6.00;;;3.35;;
51174;SDS011;37240;50.104;20.010;2023-11-21T01:58:06;2.45;;;2.15;;
51174;SDS011;37240;50.104;20.010;2023-11-21T02:03:07;7.28;;;3.33;;
51174;SDS011;37240;50.104;20.010;2023-11-21T02:08:08;6.00;;;3.13;;
51174;SDS011;37240;50.104;20.010;2023-11-21T02:13:08;14.65;;;3.83;;
51174;SDS011;37240;50.104;20.010;2023-11-21T02:18:09;5.35;;;4.03;;
51174;SDS011;37240;50.104;20.010;2023-11-21T02:23:09;7.03;;;3.60;;
51174;SDS011;37240;50.104;20.010;2023-11-21T02:28:10;10.07;;;4.55;;
51174;SDS011;37240;50.104;20.010;2023-11-21T02:33:11;9.10;;;5.03;;
51174;SDS011;37240;50.104;20.010;2023-11-21T02:38:11;9.02;;;4.75;;
51174;SDS011;37240;50.104;20.010;2023-11-21T02:43:12;8.70;;;5.00;;
51174;SDS011;37240;50.104;20.010;2023-11-21T02:48:12;8.98;;;4.72;;
51174;SDS011;37240;50.104;20.010;2023-11-21T02:53:13;8.48;;;5.30;;
51174;SDS011;37240;50.104;20.010;2023-11-21T02:58:13;11.77;;;5.28;;
51174;SDS011;37240;50.104;20.010;2023-11-21T03:03:14;7.38;;;4.68;;
51174;SDS011;37240;50.104;20.010;2023-11-21T03:08:14;30.08;;;15.27;;
51174;SDS011;37240;50.104;20.010;2023-11-21T03:13:15;21.77;;;9.85;;
51174;SDS011;37240;50.104;20.010;2023-11-21T03:18:15;10.13;;;5.13;;
51174;SDS011;37240;50.104;20.010;2023-11-21T03:23:16;6.90;;;3.28;;
51174;SDS011;37240;50.104;20.010;2023-11-21T03:28:16;8.75;;;4.13;;
51174;SDS011;37240;50.104;20.010;2023-11-21T03:33:17;10.02;;;3.60;;
51174;SDS011;37240;50.104;20.010;2023-11-21T03:38:18;8.13;;;3.30;;
51174;SDS011;37240;50.104;20.010;2023-11-21T03:43:18;6.70;;;4.18;;
51174;SDS011;37240;50.104;20.010;2023-11-21T03:48:19;7.55;;;3.97;;
51174;SDS011;37240;50.104;20.010;2023-11-21T03:53:19;5.93;;;4.05;;
51174;SDS011;37240;50.104;20.010;2023-11-21T03:58:20;8.02;;;4.53;;
51174;SDS011;37240;50.104;20.010;2023-11-21T04:03:20;9.30;;;4.57;;
51174;SDS011;37240;50.104;20.010;2023-11-21T04:08:21;5.68;;;4.03;;
51174;SDS011;37240;50.104;20.010;2023-11-21T04:13:21;9.32;;;4.18;;
51174;SDS011;37240;50.104;20.010;2023-11-21T04:18:22;9.43;;;4.35;;
51174;SDS011;37240;50.104;20.010;2023-11-21T04:23:22;7.95;;;3.72;;
51174;SDS011;37240;50.104;20.010;2023-11-21T04:28:23;3.92;;;3.25;;
51174;SDS011;37240;50.104;20.010;2023-11-21T04:33:24;4.65;;;3.35;;
51174;SDS011;37240;50.104;20.010;2023-11-21T04:38:24;8.98;;;3.83;;
51174;SDS011;37240;50.104;20.010;2023-11-21T04:43:25;6.90;;;3.20;;
51174;SDS011;37240;50.104;20.010;2023-11-21T04:48:25;5.70;;;3.80;;
51174;SDS011;37240;50.104;20.010;2023-11-21T04:53:26;4.93;;;2.83;;
51174;SDS011;37240;50.104;20.010;2023-11-21T04:58:26;5.10;;;3.40;;
51174;SDS011;37240;50.104;20.010;2023-11-21T05:03:27;12.15;;;4.30;;
51174;SDS011;37240;50.104;20.010;2023-11-21T05:08:27;6.60;;;3.88;;
51174;SDS011;37240;50.104;20.010;2023-11-21T05:13:28;7.07;;;3.50;;
51174;SDS011;37240;50.104;20.010;2023-11-21T05:18:28;3.33;;;3.03;;
51174;SDS011;37240;50.104;20.010;2023-11-21T05:23:29;7.63;;;4.13;;
51174;SDS011;37240;50.104;20.010;2023-11-21T05:28:29;10.10;;;4.60;;
51174;SDS011;37240;50.104;20.010;2023-11-21T05:33:30;7.30;;;3.83;;
51174;SDS011;37240;50.104;20.010;2023-11-21T05:38:30;9.38;;;3.80;;
51174;SDS011;37240;50.104;20.010;2023-11-21T05:43:31;9.77;;;4.20;;
51174;SDS011;37240;50.104;20.010;2023-11-21T05:48:31;7.35;;;4.22;;
51174;SDS011;37240;50.104;20.010;2023-11-21T05:53:32;10.73;;;4.22;;
51174;SDS011;37240;50.104;20.010;2023-11-21T05:58:33;10.77;;;4.38;;
51174;SDS011;37240;50.104;20.010;2023-11-21T06:03:33;19.50;;;5.18;;
51174;SDS011;37240;50.104;20.010;2023-11-21T06:08:34;9.20;;;4.63;;
51174;SDS011;37240;50.104;20.010;2023-11-21T06:13:34;9.10;;;4.68;;
51174;SDS011;37240;50.104;20.010;2023-11-21T06:18:35;7.13;;;4.25;;
51174;SDS011;37240;50.104;20.010;2023-11-21T06:23:35;5.85;;;3.50;;
51174;SDS011;37240;50.104;20.010;2023-11-21T06:28:36;7.05;;;3.88;;
51174;SDS011;37240;50.104;20.010;2023-11-21T06:33:36;4.60;;;3.45;;
51174;SDS011;37240;50.104;20.010;2023-11-21T06:38:37;12.68;;;4.28;;
51174;SDS011;37240;50.104;20.010;2023-11-21T06:43:38;3.90;;;3.45;;
51174;SDS011;37240;50.104;20.010;2023-11-21T06:48:38;3.47;;;2.92;;
51174;SDS011;37240;50.104;20.010;2023-11-21T06:53:39;4.22;;;3.20;;
51174;SDS011;37240;50.104;20.010;2023-11-21T06:58:40;4.78;;;2.97;;
51174;SDS011;37240;50.104;20.010;2023-11-21T07:03:40;8.02;;;3.28;;
51174;SDS011;37240;50.104;20.010;2023-11-21T07:08:41;4.57;;;3.38;;
51174;SDS011;37240;50.104;20.010;2023-11-21T07:13:42;7.10;;;4.20;;
51174;SDS011;37240;50.104;20.010;2023-11-21T07:18:42;5.78;;;3.33;;
51174;SDS011;37240;50.104;20.010;2023-11-21T07:23:43;8.15;;;4.10;;
51174;SDS011;37240;50.104;20.010;2023-11-21T07:28:43;13.95;;;5.32;;
51174;SDS011;37240;50.104;20.010;2023-11-21T07:33:44;7.70;;;4.65;;
51174;SDS011;37240;50.104;20.010;2023-11-21T07:38:45;9.02;;;5.45;;
51174;SDS011;37240;50.104;20.010;2023-11-21T07:43:46;14.50;;;6.63;;
51174;SDS011;37240;50.104;20.010;2023-11-21T07:48:47;9.85;;;6.45;;
51174;SDS011;37240;50.104;20.010;2023-11-21T07:53:47;12.85;;;6.65;;
51174;SDS011;37240;50.104;20.010;2023-11-21T07:58:48;12.68;;;6.47;;
51174;SDS011;37240;50.104;20.010;2023-11-21T08:03:48;10.52;;;5.57;;
51174;SDS011;37240;50.104;20.010;2023-11-21T08:08:49;10.25;;;6.55;;
51174;SDS011;37240;50.104;20.010;2023-11-21T08:13:49;10.63;;;5.78;;
51174;SDS011;37240;50.104;20.010;2023-11-21T08:18:50;16.60;;;6.18;;
51174;SDS011;37240;50.104;20.010;2023-11-21T08:23:50;15.35;;;6.70;;
51174;SDS011;37240;50.104;20.010;2023-11-21T08:28:51;10.90;;;6.57;;
51174;SDS011;37240;50.104;20.010;2023-11-21T08:33:52;8.73;;;6.25;;
51174;SDS011;37240;50.104;20.010;2023-11-21T08:38:52;11.35;;;6.03;;
51174;SDS011;37240;50.104;20.010;2023-11-21T08:43:53;12.40;;;6.22;;
51174;SDS011;37240;50.104;20.010;2023-11-21T08:48:53;10.32;;;6.45;;
51174;SDS011;37240;50.104;20.010;2023-11-21T08:53:54;9.68;;;5.18;;
51174;SDS011;37240;50.104;20.010;2023-11-21T08:58:54;5.95;;;4.47;;
51174;SDS011;37240;50.104;20.010;2023-11-21T09:03:55;5.70;;;4.93;;
51174;SDS011;37240;50.104;20.010;2023-11-21T09:08:55;8.98;;;5.13;;
51174;SDS011;37240;50.104;20.010;2023-11-21T09:13:56;9.85;;;5.35;;
51174;SDS011;37240;50.104;20.010;2023-11-21T09:18:56;8.35;;;4.63;;
51174;SDS011;37240;50.104;20.010;2023-11-21T09:23:57;10.55;;;5.65;;
51174;SDS011;37240;50.104;20.010;2023-11-21T09:28:58;11.57;;;7.05;;
51174;SDS011;37240;50.104;20.010;2023-11-21T09:33:58;13.00;;;6.90;;
51174;SDS011;37240;50.104;20.010;2023-11-21T09:38:59;13.32;;;7.45;;
51174;SDS011;37240;50.104;20.010;2023-11-21T09:43:59;15.82;;;9.00;;
51174;SDS011;37240;50.104;20.010;2023-11-21T09:49:02;12.35;;;8.80;;
51174;SDS011;37240;50.104;20.010;2023-11-21T09:54:04;17.25;;;10.23;;
51174;SDS011;37240;50.104;20.010;2023-11-21T09:59:05;17.77;;;11.05;;
51174;SDS011;37240;50.104;20.010;2023-11-21T10:04:07;23.00;;;12.13;;
51174;SDS011;37240;50.104;20.010;2023-11-21T10:09:12;18.40;;;12.18;;
51174;SDS011;37240;50.104;20.010;2023-11-21T10:14:13;21.07;;;11.63;;
51174;SDS011;37240;50.104;20.010;2023-11-21T10:19:17;23.48;;;11.02;;
51174;SDS011;37240;50.104;20.010;2023-11-21T10:24:17;23.52;;;11.18;;
51174;SDS011;37240;50.104;20.010;2023-11-21T10:29:18;22.63;;;11.90;;
51174;SDS011;37240;50.104;20.010;2023-11-21T10:34:19;25.25;;;11.88;;
51174;SDS011;37240;50.104;20.010;2023-11-21T10:39:20;16.10;;;9.80;;
51174;SDS011;37240;50.104;20.010;2023-11-21T10:44:21;21.58;;;10.57;;
51174;SDS011;37240;50.104;20.010;2023-11-21T10:49:25;18.63;;;10.32;;
51174;SDS011;37240;50.104;20.010;2023-11-21T10:54:26;21.92;;;9.32;;
51174;SDS011;37240;50.104;20.010;2023-11-21T10:59:28;21.70;;;10.45;;
51174;SDS011;37240;50.104;20.010;2023-11-21T11:04:29;19.58;;;8.88;;
51174;SDS011;37240;50.104;20.010;2023-11-21T11:09:31;16.73;;;8.82;;
51174;SDS011;37240;50.104;20.010;2023-11-21T11:14:32;20.13;;;10.25;;
51174;SDS011;37240;50.104;20.010;2023-11-21T11:19:33;15.63;;;8.30;;
51174;SDS011;37240;50.104;20.010;2023-11-21T11:24:48;12.30;;;7.78;;
51174;SDS011;37240;50.104;20.010;2023-11-21T11:35:37;14.55;;;8.55;;
51174;SDS011;37240;50.104;20.010;2023-11-21T11:40:52;14.82;;;8.32;;
51174;SDS011;37240;50.104;20.010;2023-11-21T11:45:57;20.00;;;7.38;;
51174;SDS011;37240;50.104;20.010;2023-11-21T11:51:04;14.13;;;7.68;;
51174;SDS011;37240;50.104;20.010;2023-11-21T12:01:24;13.95;;;8.45;;
51174;SDS011;37240;50.104;20.010;2023-11-21T12:06:35;14.75;;;7.40;;
51174;SDS011;37240;50.104;20.010;2023-11-21T12:11:36;19.60;;;8.73;;
51174;SDS011;37240;50.104;20.010;2023-11-21T12:16:37;13.68;;;8.65;;
51174;SDS011;37240;50.104;20.010;2023-11-21T12:21:38;16.77;;;9.50;;
51174;SDS011;37240;50.104;20.010;2023-11-21T12:26:39;17.02;;;8.95;;
51174;SDS011;37240;50.104;20.010;2023-11-21T12:31:41;12.68;;;7.78;;
51174;SDS011;37240;50.104;20.010;2023-11-21T12:36:42;12.57;;;7.70;;
51174;SDS011;37240;50.104;20.010;2023-11-21T12:41:42;18.48;;;8.18;;
51174;SDS011;37240;50.104;20.010;2023-11-21T12:46:43;16.48;;;6.13;;
51174;SDS011;37240;50.104;20.010;2023-11-21T12:51:45;10.95;;;6.28;;
51174;SDS011;37240;50.104;20.010;2023-11-21T12:56:46;12.90;;;6.93;;
51174;SDS011;37240;50.104;20.010;2023-11-21T13:01:46;14.70;;;5.85;;
51174;SDS011;37240;50.104;20.010;2023-11-21T13:06:47;18.35;;;5.45;;
51174;SDS011;37240;50.104;20.010;2023-11-21T13:11:47;12.35;;;5.82;;
51174;SDS011;37240;50.104;20.010;2023-11-21T13:16:48;18.20;;;6.32;;
51174;SDS011;37240;50.104;20.010;2023-11-21T13:21:49;16.50;;;5.45;;
51174;SDS011;37240;50.104;20.010;2023-11-21T13:26:49;13.15;;;5.57;;
51174;SDS011;37240;50.104;20.010;2023-11-21T13:31:50;13.73;;;6.80;;
51174;SDS011;37240;50.104;20.010;2023-11-21T13:36:50;22.92;;;7.93;;
51174;SDS011;37240;50.104;20.010;2023-11-21T13:41:51;11.18;;;6.82;;
51174;SDS011;37240;50.104;20.010;2023-11-21T13:46:51;13.85;;;7.38;;
51174;SDS011;37240;50.104;20.010;2023-11-21T13:51:52;17.10;;;7.63;;
51174;SDS011;37240;50.104;20.010;2023-11-21T13:56:53;17.95;;;7.50;;
51174;SDS011;37240;50.104;20.010;2023-11-21T14:01:53;15.57;;;6.72;;
51174;SDS011;37240;50.104;20.010;2023-11-21T14:06:55;17.40;;;6.38;;
51174;SDS011;37240;50.104;20.010;2023-11-21T14:11:55;13.48;;;5.47;;
51174;SDS011;37240;50.104;20.010;2023-11-21T14:16:56;11.57;;;5.38;;
51174;SDS011;37240;50.104;20.010;2023-11-21T14:21:57;10.88;;;4.47;;
51174;SDS011;37240;50.104;20.010;2023-11-21T14:26:57;7.00;;;3.97;;
51174;SDS011;37240;50.104;20.010;2023-11-21T14:31:58;9.00;;;3.92;;
51174;SDS011;37240;50.104;20.010;2023-11-21T14:36:58;13.43;;;5.03;;
51174;SDS011;37240;50.104;20.010;2023-11-21T14:41:59;9.73;;;4.00;;
51174;SDS011;37240;50.104;20.010;2023-11-21T14:46:59;6.18;;;4.28;;
51174;SDS011;37240;50.104;20.010;2023-11-21T14:52:00;19.83;;;4.82;;
51174;SDS011;37240;50.104;20.010;2023-11-21T14:57:00;7.78;;;4.28;;
51174;SDS011;37240;50.104;20.010;2023-11-21T15:02:01;12.23;;;4.50;;
51174;SDS011;37240;50.104;20.010;2023-11-21T15:07:02;15.05;;;5.50;;
51174;SDS011;37240;50.104;20.010;2023-11-21T15:12:03;12.77;;;5.35;;
51174;SDS011;37240;50.104;20.010;2023-11-21T15:17:04;10.98;;;5.05;;
51174;SDS011;37240;50.104;20.010;2023-11-21T15:22:04;13.68;;;5.78;;
51174;SDS011;37240;50.104;20.010;2023-11-21T15:27:05;9.93;;;5.32;;
51174;SDS011;37240;50.104;20.010;2023-11-21T15:32:06;12.90;;;5.78;;
51174;SDS011;37240;50.104;20.010;2023-11-21T15:37:07;15.63;;;7.25;;
51174;SDS011;37240;50.104;20.010;2023-11-21T15:42:08;15.20;;;7.03;;
51174;SDS011;37240;50.104;20.010;2023-11-21T15:47:09;13.05;;;6.28;;
51174;SDS011;37240;50.104;20.010;2023-11-21T15:52:09;11.30;;;5.78;;
51174;SDS011;37240;50.104;20.010;2023-11-21T15:57:10;12.23;;;5.78;;
51174;SDS011;37240;50.104;20.010;2023-11-21T16:02:10;17.83;;;5.47;;
51174;SDS011;37240;50.104;20.010;2023-11-21T16:07:11;13.10;;;5.13;;
51174;SDS011;37240;50.104;20.010;2023-11-21T16:12:11;10.57;;;5.60;;
51174;SDS011;37240;50.104;20.010;2023-11-21T16:17:12;6.38;;;4.80;;
51174;SDS011;37240;50.104;20.010;2023-11-21T16:22:13;11.70;;;5.60;;
51174;SDS011;37240;50.104;20.010;2023-11-21T16:27:14;14.35;;;5.53;;
51174;SDS011;37240;50.104;20.010;2023-11-21T16:32:14;15.75;;;5.82;;
51174;SDS011;37240;50.104;20.010;2023-11-21T16:37:15;10.95;;;5.28;;
51174;SDS011;37240;50.104;20.010;2023-11-21T16:42:15;11.45;;;6.43;;
51174;SDS011;37240;50.104;20.010;2023-11-21T16:47:16;11.75;;;5.70;;
51174;SDS011;37240;50.104;20.010;2023-11-21T16:52:17;12.45;;;5.95;;
51174;SDS011;37240;50.104;20.010;2023-11-21T16:57:17;11.43;;;5.90;;
51174;SDS011;37240;50.104;20.010;2023-11-21T17:02:18;14.95;;;6.28;;
51174;SDS011;37240;50.104;20.010;2023-11-21T17:07:19;12.80;;;5.78;;
51174;SDS011;37240;50.104;20.010;2023-11-21T17:12:19;8.18;;;5.85;;
51174;SDS011;37240;50.104;20.010;2023-11-21T17:17:20;21.08;;;6.78;;
51174;SDS011;37240;50.104;20.010;2023-11-21T17:22:20;17.65;;;6.63;;
51174;SDS011;37240;50.104;20.010;2023-11-21T17:27:21;14.45;;;6.60;;
51174;SDS011;37240;50.104;20.010;2023-11-21T17:32:21;15.45;;;8.13;;
51174;SDS011;37240;50.104;20.010;2023-11-21T17:37:22;13.45;;;7.30;;
51174;SDS011;37240;50.104;20.010;2023-11-21T17:42:22;18.52;;;8.90;;
51174;SDS011;37240;50.104;20.010;2023-11-21T17:47:23;23.02;;;11.45;;
51174;SDS011;37240;50.104;20.010;2023-11-21T17:52:23;23.17;;;9.60;;
51174;SDS011;37240;50.104;20.010;2023-11-21T17:57:24;17.30;;;8.27;;
51174;SDS011;37240;50.104;20.010;2023-11-21T18:02:24;17.52;;;8.52;;
51174;SDS011;37240;50.104;20.010;2023-11-21T18:07:25;18.75;;;9.13;;
51174;SDS011;37240;50.104;20.010;2023-11-21T18:12:26;27.80;;;11.27;;
51174;SDS011;37240;50.104;20.010;2023-11-21T18:17:27;27.50;;;12.77;;
51174;SDS011;37240;50.104;20.010;2023-11-21T18:22:27;36.25;;;14.65;;
51174;SDS011;37240;50.104;20.010;2023-11-21T18:27:28;34.10;;;14.45;;
51174;SDS011;37240;50.104;20.010;2023-11-21T18:32:28;23.95;;;11.52;;
51174;SDS011;37240;50.104;20.010;2023-11-21T18:37:29;26.85;;;11.45;;
51174;SDS011;37240;50.104;20.010;2023-11-21T18:42:30;22.65;;;9.68;;
51174;SDS011;37240;50.104;20.010;2023-11-21T18:47:30;24.05;;;11.02;;
51174;SDS011;37240;50.104;20.010;2023-11-21T18:52:31;25.70;;;10.05;;
51174;SDS011;37240;50.104;20.010;2023-11-21T18:57:31;19.48;;;8.38;;
51174;SDS011;37240;50.104;20.010;2023-11-21T19:02:32;15.77;;;8.07;;
51174;SDS011;37240;50.104;20.010;2023-11-21T19:07:34;20.55;;;9.35;;
51174;SDS011;37240;50.104;20.010;2023-11-21T19:12:34;19.35;;;9.50;;
51174;SDS011;37240;50.104;20.010;2023-11-21T19:17:35;18.42;;;8.40;;
51174;SDS011;37240;50.104;20.010;2023-11-21T19:22:36;24.23;;;9.32;;
51174;SDS011;37240;50.104;20.010;2023-11-21T19:27:37;25.15;;;9.45;;
51174;SDS011;37240;50.104;20.010;2023-11-21T19:32:38;14.35;;;7.47;;
51174;SDS011;37240;50.104;20.010;2023-11-21T19:37:38;15.02;;;7.45;;
51174;SDS011;37240;50.104;20.010;2023-11-21T19:42:39;15.68;;;7.57;;
51174;SDS011;37240;50.104;20.010;2023-11-21T19:47:39;18.20;;;7.90;;
51174;SDS011;37240;50.104;20.010;2023-11-21T19:52:40;12.95;;;7.03;;
51174;SDS011;37240;50.104;20.010;2023-11-21T19:57:40;20.20;;;8.80;;
51174;SDS011;37240;50.104;20.010;2023-11-21T20:02:41;18.38;;;7.85;;
51174;SDS011;37240;50.104;20.010;2023-11-21T20:07:42;25.42;;;8.50;;
51174;SDS011;37240;50.104;20.010;2023-11-21T20:12:42;15.50;;;6.88;;
51174;SDS011;37240;50.104;20.010;2023-11-21T20:17:43;18.42;;;8.07;;
51174;SDS011;37240;50.104;20.010;2023-11-21T20:22:44;15.30;;;6.43;;
51174;SDS011;37240;50.104;20.010;2023-11-21T20:27:44;14.13;;;4.47;;
51174;SDS011;37240;50.104;20.010;2023-11-21T20:32:45;5.75;;;3.78;;
51174;SDS011;37240;50.104;20.010;2023-11-21T20:37:46;11.35;;;6.00;;
51174;SDS011;37240;50.104;20.010;2023-11-21T20:42:47;10.77;;;6.55;;
51174;SDS011;37240;50.104;20.010;2023-11-21T20:47:47;13.30;;;6.75;;
51174;SDS011;37240;50.104;20.010;2023-11-21T20:52:48;16.30;;;6.78;;
51174;SDS011;37240;50.104;20.010;2023-11-21T20:57:49;20.75;;;7.88;;
51174;SDS011;37240;50.104;20.010;2023-11-21T21:02:49;10.45;;;7.05;;
51174;SDS011;37240;50.104;20.010;2023-11-21T21:07:50;17.60;;;7.65;;
51174;SDS011;37240;50.104;20.010;2023-11-21T21:12:50;13.32;;;7.45;;
51174;SDS011;37240;50.104;20.010;2023-11-21T21:17:51;11.90;;;6.53;;
51174;SDS011;37240;50.104;20.010;2023-11-21T21:22:51;14.88;;;7.05;;
51174;SDS011;37240;50.104;20.010;2023-11-21T21:27:52;12.57;;;7.03;;
51174;SDS011;37240;50.104;20.010;2023-11-21T21:32:52;13.35;;;7.00;;
51174;SDS011;37240;50.104;20.010;2023-11-21T21:37:54;15.10;;;7.22;;
51174;SDS011;37240;50.104;20.010;2023-11-21T21:42:55;15.63;;;7.25;;
51174;SDS011;37240;50.104;20.010;2023-11-21T21:47:56;16.35;;;7.50;;
51174;SDS011;37240;50.104;20.010;2023-11-21T21:52:57;20.05;;;7.07;;
51174;SDS011;37240;50.104;20.010;2023-11-21T21:57:57;41.63;;;19.92;;
51174;SDS011;37240;50.104;20.010;2023-11-21T22:02:58;11.98;;;6.13;;
51174;SDS011;37240;50.104;20.010;2023-11-21T22:07:58;10.10;;;6.07;;
51174;SDS011;37240;50.104;20.010;2023-11-21T22:12:59;7.22;;;4.47;;
51174;SDS011;37240;50.104;20.010;2023-11-21T22:17:59;7.47;;;4.35;;
51174;SDS011;37240;50.104;20.010;2023-11-21T22:23:00;9.00;;;5.85;;
51174;SDS011;37240;50.104;20.010;2023-11-21T22:28:00;14.05;;;6.93;;
51174;SDS011;37240;50.104;20.010;2023-11-21T22:33:01;15.57;;;8.90;;
51174;SDS011;37240;50.104;20.010;2023-11-21T22:38:02;18.25;;;10.05;;
51174;SDS011;37240;50.104;20.010;2023-11-21T22:43:02;21.05;;;9.75;;
51174;SDS011;37240;50.104;20.010;2023-11-21T22:48:03;18.33;;;10.18;;
51174;SDS011;37240;50.104;20.010;2023-11-21T22:53:04;19.92;;;9.68;;
51174;SDS011;37240;50.104;20.010;2023-11-21T22:58:04;16.38;;;8.68;;
51174;SDS011;37240;50.104;20.010;2023-11-21T23:03:05;20.13;;;10.70;;
51174;SDS011;37240;50.104;20.010;2023-11-21T23:08:05;16.95;;;10.13;;
51174;SDS011;37240;50.104;20.010;2023-11-21T23:13:06;15.98;;;9.60;;
51174;SDS011;37240;50.104;20.010;2023-11-21T23:18:06;19.63;;;11.63;;
51174;SDS011;37240;50.104;20.010;2023-11-21T23:23:07;27.17;;;12.95;;
51174;SDS011;37240;50.104;20.010;2023-11-21T23:28:10;23.70;;;13.27;;
51174;SDS011;37240;50.104;20.010;2023-11-21T23:33:10;31.92;;;14.43;;
51174;SDS011;37240;50.104;20.010;2023-11-21T23:38:11;29.15;;;15.75;;
51174;SDS011;37240;50.104;20.010;2023-11-21T23:43:11;37.63;;;17.83;;
51174;SDS011;37240;50.104;20.010;2023-11-21T23:48:12;35.78;;;16.08;;
51174;SDS011;37240;50.104;20.010;2023-11-21T23:53:13;35.08;;;17.58;;
51174;SDS011;37240;50.104;20.010;2023-11-21T23:58:13;41.78;;;17.13;;
